Time;durP1;ratioP1;P1;durP2;ratioP2;P2;SDS_P1;SDS_P2;PMS_P1;PMS_P2;Temp;Humidity;BMP_temperature;BMP_pressure;BME280_temperature;BME280_humidity;BME280_pressure;Samples;Min_cycle;Max_cycle;Signal;HPM_P1;HPM_P2
2024/01/17 00:01:08;;;;;;;15.93;9.30;;;8.90;46.30;;;;;;5148536;27;20558;-75
2024/01/17 00:03:36;;;;;;;11.33;8.17;;;8.90;46.60;;;;;;5153384;27;20450;-75
2024/01/17 00:06:05;;;;;;;12.10;8.80;;;8.70;46.70;;;;;;5143062;27;20498;-76
2024/01/17 00:08:33;;;;;;;16.93;9.40;;;8.60;46.30;;;;;;5141825;27;20546;-76
2024/01/17 00:11:01;;;;;;;14.60;8.80;;;8.60;46.40;;;;;;5132931;28;20443;-75
2024/01/17 00:13:29;;;;;;;13.73;8.23;;;8.60;46.60;;;;;;5137743;27;20533;-76
2024/01/17 00:15:57;;;;;;;18.20;8.77;;;8.50;46.40;;;;;;5150426;27;20469;-75
2024/01/17 00:18:25;;;;;;;15.03;8.30;;;8.50;46.60;;;;;;5144542;27;20495;-76
2024/01/17 00:20:53;;;;;;;12.67;8.00;;;8.50;46.40;;;;;;5147568;27;20450;-75
2024/01/17 00:23:24;;;;;;;12.63;8.17;;;8.50;46.20;;;;;;5136180;27;20530;-75
2024/01/17 00:25:52;;;;;;;14.63;8.17;;;8.50;46.20;;;;;;5143653;27;20464;-75
2024/01/17 00:28:20;;;;;;;16.87;8.60;;;8.50;46.20;;;;;;5146499;27;20435;-75
2024/01/17 00:30:49;;;;;;;15.90;8.40;;;8.40;46.10;;;;;;5134986;27;20447;-75
2024/01/17 00:33:17;;;;;;;12.27;7.63;;;8.40;46.40;;;;;;5132857;27;20442;-75
2024/01/17 00:35:45;;;;;;;14.37;8.37;;;8.30;46.00;;;;;;5141710;27;20449;-75
2024/01/17 00:38:13;;;;;;;18.27;8.47;;;8.30;45.90;;;;;;5153735;27;20442;-75
2024/01/17 00:40:43;;;;;;;15.73;8.43;;;8.30;46.30;;;;;;5116009;28;20538;-75
2024/01/17 00:43:11;;;;;;;14.43;7.90;;;8.30;46.40;;;;;;5115456;28;20547;-75
2024/01/17 00:45:39;;;;;;;11.60;7.43;;;8.50;46.30;;;;;;5115909;28;20443;-75
2024/01/17 00:48:07;;;;;;;17.80;7.93;;;8.40;45.70;;;;;;5116344;28;20440;-75
2024/01/17 00:50:35;;;;;;;14.60;8.20;;;8.50;45.80;;;;;;5115984;28;20493;-75
2024/01/17 00:53:03;;;;;;;14.90;8.27;;;8.40;45.80;;;;;;5115289;28;20463;-75
2024/01/17 00:55:31;;;;;;;13.60;7.80;;;8.40;45.50;;;;;;5115559;27;21044;-75
2024/01/17 00:58:01;;;;;;;14.00;8.17;;;8.30;45.70;;;;;;5136393;27;20438;-75
2024/01/17 01:00:29;;;;;;;15.60;8.80;;;8.30;45.40;;;;;;5136675;27;20488;-75
2024/01/17 01:02:57;;;;;;;18.83;9.20;;;8.20;45.70;;;;;;5135948;27;20519;-75
2024/01/17 01:05:24;;;;;;;19.03;8.60;;;8.20;45.60;;;;;;5136011;27;20458;-75
2024/01/17 01:07:52;;;;;;;14.20;7.90;;;8.20;45.50;;;;;;5136138;27;20439;-75
2024/01/17 01:10:20;;;;;;;12.83;7.97;;;8.10;45.40;;;;;;5135253;27;20475;-74
2024/01/17 01:12:48;;;;;;;15.60;8.37;;;8.10;45.80;;;;;;5125632;27;20519;-74
2024/01/17 01:15:18;;;;;;;14.40;8.47;;;8.20;45.70;;;;;;5135823;27;20512;-74
2024/01/17 01:17:45;;;;;;;14.80;8.70;;;8.20;45.80;;;;;;5135528;27;20522;-76
2024/01/17 01:20:13;;;;;;;12.63;8.13;;;8.30;45.80;;;;;;5135724;27;20469;-75
2024/01/17 01:22:42;;;;;;;12.90;7.77;;;8.30;45.50;;;;;;5122808;27;20460;-75
2024/01/17 01:25:10;;;;;;;13.20;8.30;;;8.20;45.70;;;;;;5135618;27;20541;-75
2024/01/17 01:27:38;;;;;;;13.83;8.60;;;8.10;45.40;;;;;;5135968;27;20471;-75
2024/01/17 01:30:08;;;;;;;18.67;8.63;;;8.20;45.60;;;;;;5135477;27;20495;-75
2024/01/17 01:32:38;;;;;;;14.20;9.33;;;8.30;45.40;;;;;;5135256;27;20526;-75
2024/01/17 01:35:06;;;;;;;16.40;9.17;;;8.20;45.50;;;;;;5135136;27;20812;-76
2024/01/17 01:37:34;;;;;;;15.23;8.87;;;8.20;45.30;;;;;;5134526;27;20467;-76
2024/01/17 01:40:03;;;;;;;16.33;9.00;;;8.30;45.40;;;;;;5135789;27;20476;-75
2024/01/17 01:42:31;;;;;;;13.20;8.23;;;8.20;45.50;;;;;;5134924;27;20471;-75
2024/01/17 01:44:59;;;;;;;18.87;9.10;;;8.20;45.40;;;;;;5135878;27;20560;-75
2024/01/17 01:47:27;;;;;;;15.03;8.90;;;8.20;45.40;;;;;;5134909;27;20941;-75
2024/01/17 01:49:57;;;;;;;18.97;9.40;;;8.20;46.10;;;;;;5135188;27;20443;-75
2024/01/17 01:52:25;;;;;;;16.00;9.80;;;8.30;45.70;;;;;;5134566;27;20470;-74
2024/01/17 01:54:53;;;;;;;22.13;9.30;;;8.40;45.60;;;;;;5133360;27;20522;-75
2024/01/17 01:57:22;;;;;;;17.10;9.57;;;8.30;45.20;;;;;;5134918;27;20471;-75
2024/01/17 01:59:50;;;;;;;22.47;9.87;;;8.40;45.70;;;;;;5134263;27;20439;-76
2024/01/17 02:02:18;;;;;;;13.10;9.07;;;8.30;45.30;;;;;;5133903;27;20519;-76
2024/01/17 02:04:46;;;;;;;17.40;10.20;;;8.30;45.20;;;;;;5141085;27;20446;-75
2024/01/17 02:07:16;;;;;;;16.60;9.17;;;8.20;45.40;;;;;;5149549;27;20453;-74
2024/01/17 02:09:45;;;;;;;18.43;10.10;;;8.30;45.70;;;;;;5149931;27;20456;-75
2024/01/17 02:12:14;;;;;;;15.67;10.63;;;8.20;45.20;;;;;;5138825;27;20476;-75
2024/01/17 02:14:42;;;;;;;18.23;10.43;;;8.10;45.50;;;;;;5136912;27;20441;-75
2024/01/17 02:17:10;;;;;;;17.53;10.93;;;8.20;45.60;;;;;;5136042;27;20447;-76
2024/01/17 02:19:38;;;;;;;19.80;11.07;;;8.20;45.70;;;;;;5135573;27;20470;-75
2024/01/17 02:22:06;;;;;;;17.60;10.43;;;8.10;45.60;;;;;;5134184;27;20466;-75
2024/01/17 02:24:35;;;;;;;17.27;10.87;;;8.10;45.50;;;;;;5125066;27;20522;-74
2024/01/17 02:27:03;;;;;;;20.23;11.10;;;8.10;45.80;;;;;;5134968;27;20423;-75
2024/01/17 02:29:32;;;;;;;18.50;10.70;;;8.10;45.70;;;;;;5134815;27;20442;-75
2024/01/17 02:32:00;;;;;;;20.97;11.53;;;8.00;46.00;;;;;;5134144;27;20477;-74
2024/01/17 02:34:28;;;;;;;25.17;11.20;;;8.10;46.00;;;;;;5134441;27;20522;-75
2024/01/17 02:36:56;;;;;;;20.20;11.97;;;8.10;45.90;;;;;;5134390;27;20446;-75
2024/01/17 02:39:24;;;;;;;20.50;12.17;;;8.10;46.10;;;;;;5133524;27;20937;-74
2024/01/17 02:41:54;;;;;;;22.00;12.03;;;8.10;45.80;;;;;;5133613;27;20546;-74
2024/01/17 02:44:22;;;;;;;24.17;11.17;;;8.10;45.90;;;;;;5134376;27;20439;-76
2024/01/17 02:46:50;;;;;;;22.80;13.00;;;8.30;46.40;;;;;;5134692;27;20454;-75
2024/01/17 02:49:19;;;;;;;22.03;11.20;;;8.30;45.80;;;;;;5134378;27;20525;-76
2024/01/17 02:51:48;;;;;;;27.63;13.43;;;8.20;45.40;;;;;;5133060;27;20463;-76
2024/01/17 02:54:16;;;;;;;25.47;13.30;;;8.10;45.90;;;;;;5134315;27;20514;-74
2024/01/17 02:56:44;;;;;;;25.40;13.23;;;8.00;45.80;;;;;;5133060;27;20451;-74
2024/01/17 02:59:14;;;;;;;32.13;17.63;;;8.10;46.70;;;;;;5133066;27;20447;-74
2024/01/17 03:01:42;;;;;;;27.97;15.00;;;8.30;46.20;;;;;;5132935;27;20522;-74
2024/01/17 03:04:10;;;;;;;26.43;13.90;;;8.20;46.00;;;;;;5133724;27;20566;-75
2024/01/17 03:06:38;;;;;;;22.43;12.83;;;8.20;46.30;;;;;;5133479;27;20441;-75
2024/01/17 03:09:06;;;;;;;24.30;13.03;;;8.20;46.40;;;;;;5133571;27;20446;-75
2024/01/17 03:11:34;;;;;;;25.93;13.90;;;8.10;46.30;;;;;;5133321;27;20541;-75
2024/01/17 03:14:03;;;;;;;22.57;12.43;;;8.20;46.60;;;;;;5118398;27;20452;-76
2024/01/17 03:16:32;;;;;;;28.53;13.50;;;8.20;46.20;;;;;;5113223;28;20438;-75
2024/01/17 03:19:00;;;;;;;24.53;13.73;;;8.10;46.10;;;;;;5112763;28;20492;-75
2024/01/17 03:21:28;;;;;;;24.50;11.93;;;8.10;46.60;;;;;;5112389;28;20482;-75
2024/01/17 03:23:58;;;;;;;23.33;12.80;;;8.20;46.30;;;;;;5114318;27;20479;-75
2024/01/17 03:26:26;;;;;;;22.23;12.27;;;8.00;45.90;;;;;;5133231;27;20473;-75
2024/01/17 03:28:54;;;;;;;17.07;11.83;;;8.20;46.70;;;;;;5133290;27;20435;-75
2024/01/17 03:31:22;;;;;;;19.70;11.37;;;8.20;46.40;;;;;;5132781;27;20455;-75
2024/01/17 03:33:52;;;;;;;19.13;12.13;;;8.30;46.70;;;;;;5133374;27;20540;-75
2024/01/17 03:36:20;;;;;;;21.67;12.13;;;8.30;45.90;;;;;;5132815;27;20473;-75
2024/01/17 03:38:48;;;;;;;20.07;12.10;;;8.30;46.10;;;;;;5133386;27;20439;-75
2024/01/17 03:41:16;;;;;;;21.93;11.53;;;8.30;46.40;;;;;;5127058;27;20474;-75
2024/01/17 03:43:44;;;;;;;22.10;11.60;;;8.40;46.20;;;;;;5120635;27;20566;-75
2024/01/17 03:46:12;;;;;;;16.13;11.00;;;8.30;46.30;;;;;;5112595;28;20519;-75
2024/01/17 03:48:40;;;;;;;21.00;11.20;;;8.30;46.30;;;;;;5112628;28;20436;-76
2024/01/17 03:51:10;;;;;;;17.20;10.17;;;8.50;46.10;;;;;;5111672;28;20461;-74
2024/01/17 03:53:37;;;;;;;15.20;10.10;;;8.50;45.70;;;;;;5112239;28;20439;-75
2024/01/17 03:56:05;;;;;;;18.03;10.90;;;8.40;45.80;;;;;;5112261;28;20440;-74
2024/01/17 03:58:33;;;;;;;20.60;11.53;;;8.30;45.60;;;;;;5112322;28;20431;-74
2024/01/17 04:01:02;;;;;;;16.70;10.80;;;8.30;45.80;;;;;;5117304;28;20545;-74
2024/01/17 04:03:29;;;;;;;14.93;9.60;;;8.20;45.90;;;;;;5125939;27;20475;-74
2024/01/17 04:05:57;;;;;;;17.17;10.80;;;8.20;46.00;;;;;;5130519;28;20470;-75
2024/01/17 04:08:27;;;;;;;22.30;11.30;;;8.10;45.90;;;;;;5120609;27;20509;-76
2024/01/17 04:10:55;;;;;;;20.27;10.50;;;8.20;45.90;;;;;;5119399;27;20479;-76
2024/01/17 04:13:23;;;;;;;14.90;10.67;;;8.20;46.50;;;;;;5139245;27;20435;-75
2024/01/17 04:15:51;;;;;;;17.00;10.47;;;8.20;46.10;;;;;;5138703;27;20439;-76
2024/01/17 04:18:18;;;;;;;17.53;10.53;;;8.10;45.90;;;;;;5142302;27;20517;-75
2024/01/17 04:20:47;;;;;;;15.67;10.10;;;8.20;45.80;;;;;;5136323;27;20846;-75
2024/01/17 04:23:15;;;;;;;17.93;9.63;;;8.20;45.90;;;;;;5127742;27;20471;-76
2024/01/17 04:25:45;;;;;;;14.87;10.00;;;8.10;46.00;;;;;;5134305;27;20450;-75
2024/01/17 04:28:13;;;;;;;14.53;9.90;;;8.20;46.20;;;;;;5136431;27;20443;-75
2024/01/17 04:30:41;;;;;;;18.30;10.07;;;8.20;46.20;;;;;;5136735;27;20439;-76
2024/01/17 04:33:09;;;;;;;18.00;10.17;;;8.10;45.80;;;;;;5128808;27;20471;-76
2024/01/17 04:35:37;;;;;;;14.07;9.80;;;8.10;46.00;;;;;;5136470;27;20434;-76
2024/01/17 04:38:05;;;;;;;19.70;10.00;;;8.00;46.00;;;;;;5135850;27;20437;-76
2024/01/17 04:40:33;;;;;;;14.23;9.70;;;8.00;46.00;;;;;;5130262;27;20525;-76
2024/01/17 04:43:02;;;;;;;18.40;9.63;;;8.00;46.10;;;;;;5132436;27;20910;-76
2024/01/17 04:45:30;;;;;;;11.60;8.47;;;8.00;46.00;;;;;;5127623;27;20522;-75
2024/01/17 04:47:58;;;;;;;16.67;10.20;;;8.00;46.10;;;;;;5117937;27;20451;-76
2024/01/17 04:50:26;;;;;;;12.90;8.97;;;7.90;45.70;;;;;;5133396;27;20925;-76
2024/01/17 04:52:55;;;;;;;21.87;9.37;;;8.00;46.20;;;;;;5134170;27;20474;-76
2024/01/17 04:55:23;;;;;;;16.00;9.40;;;8.10;46.20;;;;;;5136276;27;20503;-76
2024/01/17 04:57:51;;;;;;;11.93;9.00;;;8.30;46.20;;;;;;5127942;27;20514;-75
2024/01/17 05:00:20;;;;;;;13.43;8.90;;;8.10;45.50;;;;;;5124711;27;20446;-75
2024/01/17 05:02:49;;;;;;;15.10;8.30;;;8.20;46.00;;;;;;5132177;27;20454;-76
2024/01/17 05:05:17;;;;;;;16.53;9.20;;;8.20;45.60;;;;;;5134843;27;20470;-76
2024/01/17 05:07:45;;;;;;;15.53;9.37;;;8.10;45.60;;;;;;5136022;27;20491;-76
2024/01/17 05:10:14;;;;;;;18.70;9.80;;;8.10;46.00;;;;;;5136007;27;20431;-76
2024/01/17 05:12:41;;;;;;;13.90;8.87;;;8.10;45.70;;;;;;5135187;27;20487;-76
2024/01/17 05:15:10;;;;;;;14.67;8.83;;;8.10;45.70;;;;;;5135895;27;20466;-76
2024/01/17 05:17:40;;;;;;;13.17;8.27;;;8.10;45.60;;;;;;5118485;27;20440;-76
2024/01/17 05:20:09;;;;;;;18.00;9.63;;;8.10;45.60;;;;;;5124029;28;20439;-76
2024/01/17 05:22:39;;;;;;;12.57;8.60;;;8.00;45.30;;;;;;5132352;28;20466;-74
2024/01/17 05:25:11;;;;;;;14.00;7.90;;;8.00;45.70;;;;;;5133626;28;20520;-76
2024/01/17 05:27:39;;;;;;;13.90;8.63;;;8.10;46.10;;;;;;5139464;27;20486;-76
2024/01/17 05:30:09;;;;;;;15.67;8.90;;;8.10;45.70;;;;;;5138852;27;20542;-76
2024/01/17 05:32:45;;;;;;;21.07;9.30;;;8.10;45.40;;;;;;5137101;27;20463;-76
2024/01/17 05:35:14;;;;;;;16.93;8.53;;;8.10;45.80;;;;;;5136145;27;20439;-76
2024/01/17 05:37:42;;;;;;;14.23;8.67;;;8.10;45.50;;;;;;5135113;27;20960;-76
2024/01/17 05:40:11;;;;;;;14.70;8.90;;;8.10;45.70;;;;;;5135595;27;20442;-76
2024/01/17 05:42:39;;;;;;;14.57;8.30;;;8.00;45.10;;;;;;5133681;27;20471;-76
2024/01/17 05:45:08;;;;;;;11.10;7.67;;;8.00;45.50;;;;;;5135476;27;20514;-76
2024/01/17 05:47:37;;;;;;;11.00;7.77;;;8.00;45.50;;;;;;5135146;27;20453;-76
2024/01/17 05:50:09;;;;;;;14.73;8.20;;;8.00;45.40;;;;;;5135055;27;20442;-75
2024/01/17 05:52:38;;;;;;;12.83;7.93;;;7.90;45.10;;;;;;5134368;27;20473;-76
2024/01/17 05:55:08;;;;;;;11.57;7.70;;;7.90;45.40;;;;;;5134916;27;20487;-76
2024/01/17 05:57:36;;;;;;;12.23;8.50;;;7.90;45.40;;;;;;5135182;27;20460;-75
2024/01/17 06:00:04;;;;;;;9.90;7.53;;;7.80;45.50;;;;;;5132725;27;20514;-76
2024/01/17 06:02:32;;;;;;;17.23;7.77;;;7.80;45.30;;;;;;5134391;27;20463;-76
2024/01/17 06:05:00;;;;;;;12.60;8.53;;;7.70;45.30;;;;;;5134295;27;20490;-75
2024/01/17 06:07:30;;;;;;;11.20;7.73;;;7.70;45.20;;;;;;5127003;27;21009;-76
2024/01/17 06:09:57;;;;;;;13.30;7.83;;;7.60;45.30;;;;;;5134701;27;20427;-76
2024/01/17 06:12:26;;;;;;;12.70;8.63;;;7.70;45.70;;;;;;5134070;27;20459;-76
2024/01/17 06:14:54;;;;;;;15.20;7.80;;;7.70;45.50;;;;;;5134146;27;20447;-76
2024/01/17 06:17:22;;;;;;;17.43;7.57;;;7.80;45.20;;;;;;5134622;27;20521;-77
2024/01/17 06:19:50;;;;;;;12.57;8.23;;;7.90;45.20;;;;;;5134659;27;20478;-77
2024/01/17 06:22:19;;;;;;;25.40;7.63;;;7.90;45.20;;;;;;5129524;27;20476;-77
2024/01/17 06:24:48;;;;;;;12.60;7.53;;;7.80;44.80;;;;;;5134445;27;20467;-76
2024/01/17 06:27:17;;;;;;;14.13;8.00;;;8.00;45.40;;;;;;5133738;27;20882;-76
2024/01/17 06:29:45;;;;;;;10.97;7.23;;;8.00;45.00;;;;;;5134143;27;20449;-76
2024/01/17 06:32:14;;;;;;;12.23;8.67;;;8.00;44.60;;;;;;5133056;27;20546;-76
2024/01/17 06:34:43;;;;;;;13.43;8.27;;;8.00;44.80;;;;;;5134491;27;20834;-76
2024/01/17 06:37:11;;;;;;;12.03;7.27;;;8.00;44.60;;;;;;5134204;27;20435;-76
2024/01/17 06:39:40;;;;;;;15.90;7.30;;;7.90;44.80;;;;;;5134181;27;20488;-77
2024/01/17 06:42:09;;;;;;;13.90;7.77;;;7.90;44.70;;;;;;5133566;27;20548;-77
2024/01/17 06:44:37;;;;;;;14.87;8.10;;;7.90;44.90;;;;;;5131040;27;20475;-75
2024/01/17 06:47:06;;;;;;;13.47;8.23;;;7.90;45.10;;;;;;5133656;27;20435;-75
2024/01/17 06:49:35;;;;;;;14.00;7.53;;;8.00;45.00;;;;;;5133112;27;20571;-76
2024/01/17 06:52:03;;;;;;;13.37;7.90;;;8.00;44.90;;;;;;5133290;27;20462;-77
2024/01/17 06:54:31;;;;;;;12.77;7.87;;;8.10;44.90;;;;;;5133343;27;20432;-76
2024/01/17 06:56:59;;;;;;;16.23;9.10;;;8.10;44.40;;;;;;5133725;27;20533;-76
2024/01/17 06:59:29;;;;;;;16.97;8.93;;;8.10;44.70;;;;;;5133643;27;20431;-76
2024/01/17 07:01:57;;;;;;;14.20;8.70;;;8.10;44.80;;;;;;5132718;27;20496;-79
2024/01/17 07:04:25;;;;;;;19.27;8.87;;;8.10;44.60;;;;;;5134514;27;20462;-76
2024/01/17 07:06:53;;;;;;;18.47;8.93;;;8.00;44.70;;;;;;5135496;27;20438;-75
2024/01/17 07:09:21;;;;;;;18.70;9.20;;;8.00;44.80;;;;;;5132004;27;20471;-76
2024/01/17 07:11:49;;;;;;;12.73;8.83;;;7.90;45.00;;;;;;5133222;27;20558;-76
2024/01/17 07:14:17;;;;;;;19.70;9.27;;;7.90;45.00;;;;;;5135255;27;20435;-77
2024/01/17 07:16:48;;;;;;;17.73;9.27;;;7.90;45.20;;;;;;5133095;27;20557;-76
2024/01/17 07:19:16;;;;;;;15.70;9.30;;;7.80;45.10;;;;;;5131515;27;20447;-75
2024/01/17 07:21:44;;;;;;;14.03;9.13;;;7.80;44.90;;;;;;5126984;27;20539;-75
2024/01/17 07:24:12;;;;;;;16.60;8.70;;;7.90;45.30;;;;;;5132737;27;20449;-76
2024/01/17 07:26:41;;;;;;;15.60;9.50;;;7.80;44.90;;;;;;5133551;27;20474;-77
2024/01/17 07:29:10;;;;;;;13.53;8.80;;;7.80;45.20;;;;;;5132389;27;20453;-78
2024/01/17 07:31:38;;;;;;;21.17;9.50;;;7.90;45.40;;;;;;5133376;27;21032;-78
2024/01/17 07:34:08;;;;;;;14.60;8.50;;;7.90;45.10;;;;;;5134107;27;20438;-77
2024/01/17 07:36:36;;;;;;;18.03;9.10;;;7.90;44.90;;;;;;5129405;27;20498;-77
2024/01/17 07:39:04;;;;;;;21.80;9.50;;;8.00;45.20;;;;;;5133461;27;20639;-78
2024/01/17 07:41:32;;;;;;;19.20;9.77;;;7.90;44.90;;;;;;5133185;27;20473;-77
2024/01/17 07:47:00;;;;;;;17.63;9.60;;;7.80;44.80;;;;;;5108977;28;20582;-76
2024/01/17 07:49:30;;;;;;;16.07;9.17;;;7.80;45.10;;;;;;5112718;28;20444;-76
2024/01/17 07:51:58;;;;;;;14.27;9.10;;;7.90;45.10;;;;;;5111662;28;20456;-77
2024/01/17 07:54:27;;;;;;;20.20;10.27;;;7.70;44.90;;;;;;5112565;28;20428;-76
2024/01/17 07:56:55;;;;;;;17.40;10.00;;;7.70;44.90;;;;;;5112437;28;20514;-77
2024/01/17 07:59:23;;;;;;;19.73;9.80;;;7.60;45.20;;;;;;5112620;28;20440;-77
2024/01/17 08:01:50;;;;;;;14.60;9.10;;;7.70;45.60;;;;;;5128595;28;20506;-77
2024/01/17 08:04:19;;;;;;;14.47;9.13;;;7.70;45.00;;;;;;5133474;28;20526;-76
2024/01/17 08:06:48;;;;;;;13.03;8.60;;;7.80;44.80;;;;;;5132862;28;20477;-77
2024/01/17 08:09:21;;;;;;;19.73;10.40;;;7.80;45.10;;;;;;5132841;28;20967;-76
2024/01/17 08:11:51;;;;;;;17.83;9.23;;;7.70;44.40;;;;;;5132065;28;21003;-76
2024/01/17 08:14:19;;;;;;;19.27;10.13;;;7.80;45.00;;;;;;5132879;28;20447;-76
2024/01/17 08:16:47;;;;;;;19.40;10.00;;;7.70;45.40;;;;;;5117141;28;20439;-77
2024/01/17 08:19:16;;;;;;;14.77;9.10;;;7.70;44.80;;;;;;5111752;28;20950;-76
2024/01/17 08:21:44;;;;;;;13.57;8.93;;;7.80;45.10;;;;;;5111463;28;20463;-75
2024/01/17 08:24:13;;;;;;;15.40;9.23;;;7.70;44.70;;;;;;5112777;28;20443;-77
2024/01/17 08:26:41;;;;;;;19.13;9.70;;;7.80;45.50;;;;;;5111558;28;20495;-76
2024/01/17 08:29:10;;;;;;;17.17;9.27;;;8.00;45.20;;;;;;5115168;27;20451;-78
2024/01/17 08:31:38;;;;;;;16.50;9.57;;;7.90;44.60;;;;;;5125946;27;20460;-76
2024/01/17 08:34:06;;;;;;;14.07;8.70;;;7.80;45.00;;;;;;5120087;28;20480;-76
2024/01/17 08:36:34;;;;;;;13.07;9.10;;;8.00;45.20;;;;;;5138740;27;20431;-77
2024/01/17 08:39:05;;;;;;;12.60;8.20;;;8.10;44.50;;;;;;5157838;27;20419;-79
2024/01/17 08:41:34;;;;;;;16.00;8.50;;;8.10;44.30;;;;;;5154528;28;20471;-77
2024/01/17 08:44:02;;;;;;;17.00;9.00;;;8.10;44.30;;;;;;5148182;28;20428;-76
2024/01/17 08:46:30;;;;;;;15.70;8.80;;;8.10;44.20;;;;;;5119060;28;20532;-75
2024/01/17 08:48:58;;;;;;;14.40;8.30;;;8.20;44.50;;;;;;5133934;28;20463;-76
2024/01/17 08:51:26;;;;;;;15.60;8.70;;;8.20;44.10;;;;;;5130189;28;20486;-76
2024/01/17 08:53:55;;;;;;;11.70;8.73;;;8.20;44.00;;;;;;5132594;28;20471;-76
2024/01/17 08:56:24;;;;;;;15.90;8.60;;;8.10;44.20;;;;;;5134081;27;20522;-75
2024/01/17 08:58:53;;;;;;;14.83;8.60;;;8.10;44.00;;;;;;5136150;27;20522;-75
2024/01/17 09:01:21;;;;;;;20.00;8.63;;;8.10;43.90;;;;;;5134979;27;20840;-76
2024/01/17 09:03:52;;;;;;;19.33;9.23;;;8.10;44.00;;;;;;5134271;27;20454;-75
2024/01/17 09:06:20;;;;;;;15.13;8.33;;;8.20;44.20;;;;;;5135423;27;20462;-76
2024/01/17 09:08:48;;;;;;;14.67;9.17;;;8.20;43.90;;;;;;5135263;27;20430;-75
2024/01/17 09:11:16;;;;;;;15.07;8.37;;;8.30;44.10;;;;;;5135289;27;20447;-75
2024/01/17 09:13:46;;;;;;;12.90;7.77;;;8.40;44.20;;;;;;5135759;27;20463;-74
2024/01/17 09:16:15;;;;;;;16.30;8.70;;;8.40;43.70;;;;;;5135585;27;20439;-76
2024/01/17 09:18:44;;;;;;;11.50;7.90;;;8.40;43.60;;;;;;5134035;27;20451;-74
2024/01/17 09:21:12;;;;;;;16.13;8.60;;;8.40;43.80;;;;;;5134472;27;20482;-75
2024/01/17 09:23:40;;;;;;;10.83;8.17;;;8.30;43.70;;;;;;5128930;27;20447;-76
2024/01/17 09:26:08;;;;;;;14.10;8.60;;;8.50;44.10;;;;;;5135773;27;20512;-77
2024/01/17 09:28:37;;;;;;;12.60;8.30;;;8.50;43.50;;;;;;5135402;27;20438;-76
2024/01/17 09:31:05;;;;;;;11.57;7.90;;;8.60;44.10;;;;;;5128094;27;20542;-76
2024/01/17 09:33:35;;;;;;;12.10;7.67;;;8.60;43.50;;;;;;5133882;27;20439;-77
2024/01/17 09:36:04;;;;;;;13.60;8.50;;;8.70;43.60;;;;;;5135274;27;20443;-76
2024/01/17 09:38:32;;;;;;;16.20;8.40;;;8.80;43.30;;;;;;5135261;27;20510;-77
2024/01/17 09:41:00;;;;;;;14.20;8.10;;;8.90;43.40;;;;;;5135669;27;20439;-74
2024/01/17 09:43:28;;;;;;;15.93;8.73;;;8.90;43.20;;;;;;5131641;27;20471;-77
2024/01/17 09:45:57;;;;;;;10.27;6.80;;;9.00;43.10;;;;;;5134100;27;20439;-76
2024/01/17 09:48:25;;;;;;;23.63;8.40;;;8.90;42.10;;;;;;5134744;27;20489;-78
2024/01/17 09:50:55;;;;;;;13.73;7.47;;;8.90;42.40;;;;;;5134910;27;20435;-77
2024/01/17 09:53:26;;;;;;;15.30;8.17;;;9.00;42.60;;;;;;5134395;27;20459;-78
2024/01/17 09:55:54;;;;;;;13.60;8.10;;;9.00;42.60;;;;;;5134254;27;20431;-77
2024/01/17 09:58:22;;;;;;;13.77;8.40;;;9.00;42.40;;;;;;5135268;27;20531;-77
2024/01/17 10:00:49;;;;;;;15.10;8.43;;;9.20;42.20;;;;;;5134641;27;20529;-76
2024/01/17 10:03:20;;;;;;;13.50;8.00;;;9.20;42.00;;;;;;5115521;27;20463;-77
2024/01/17 10:05:49;;;;;;;13.70;8.40;;;9.20;41.90;;;;;;5114864;28;20431;-77
2024/01/17 10:08:19;;;;;;;10.20;7.20;;;9.20;42.00;;;;;;5113855;28;20467;-77
2024/01/17 10:10:47;;;;;;;12.77;7.97;;;9.10;41.60;;;;;;5114306;28;20444;-77
2024/01/17 10:13:15;;;;;;;11.70;7.53;;;9.20;41.60;;;;;;5113714;28;20535;-77
2024/01/17 10:15:44;;;;;;;13.53;7.33;;;9.20;41.60;;;;;;5114161;28;20493;-77
2024/01/17 10:18:12;;;;;;;15.80;7.63;;;9.20;41.30;;;;;;5113981;28;20543;-76
2024/01/17 10:20:40;;;;;;;13.83;7.70;;;9.20;41.40;;;;;;5123293;27;20539;-77
2024/01/17 10:23:08;;;;;;;12.93;8.30;;;9.10;40.80;;;;;;5133897;27;20458;-76
2024/01/17 10:25:41;;;;;;;11.37;8.13;;;9.20;41.50;;;;;;5132844;27;20478;-77
2024/01/17 10:28:09;;;;;;;12.13;7.90;;;9.10;41.20;;;;;;5123916;27;20465;-75
2024/01/17 10:30:38;;;;;;;10.57;7.70;;;9.30;41.80;;;;;;5137730;27;20481;-78
2024/01/17 10:33:07;;;;;;;14.60;8.50;;;9.40;41.50;;;;;;5133042;27;20545;-80
2024/01/17 10:35:35;;;;;;;13.83;8.17;;;9.50;41.90;;;;;;5135408;27;20495;-77
2024/01/17 10:38:04;;;;;;;11.90;7.30;;;9.60;41.50;;;;;;5139449;27;20466;-77
2024/01/17 10:40:32;;;;;;;15.83;7.57;;;9.60;41.30;;;;;;5155065;27;20456;-77
2024/01/17 10:43:09;;;;;;;11.60;8.13;;;9.60;41.40;;;;;;5148829;27;20498;-77
2024/01/17 10:45:39;;;;;;;15.53;7.40;;;9.70;41.70;;;;;;5130429;27;20913;-76
2024/01/17 10:48:08;;;;;;;13.60;8.27;;;9.80;41.40;;;;;;5135802;27;20466;-77
2024/01/17 10:50:36;;;;;;;15.20;8.33;;;9.60;41.00;;;;;;5133545;27;20439;-76
2024/01/17 10:53:06;;;;;;;12.60;8.23;;;9.60;40.80;;;;;;5131769;27;20485;-77
2024/01/17 10:55:35;;;;;;;12.47;7.43;;;9.60;40.80;;;;;;5131627;27;20436;-77
2024/01/17 10:58:10;;;;;;;11.23;7.40;;;9.60;41.20;;;;;;5131503;27;20499;-76
2024/01/17 11:00:39;;;;;;;10.20;7.50;;;9.70;41.10;;;;;;5125582;27;20452;-74
2024/01/17 11:03:09;;;;;;;13.50;7.87;;;9.70;40.90;;;;;;5126047;27;20474;-76
2024/01/17 11:05:45;;;;;;;18.63;7.90;;;9.70;40.80;;;;;;5132145;27;20495;-76
2024/01/17 11:08:14;;;;;;;10.17;7.60;;;9.70;40.80;;;;;;5131378;27;20494;-76
2024/01/17 11:10:43;;;;;;;16.17;9.07;;;9.80;40.60;;;;;;5140572;27;20541;-76
2024/01/17 11:13:14;;;;;;;16.00;8.17;;;10.00;40.30;;;;;;5122415;27;20464;-76
2024/01/17 11:15:42;;;;;;;14.30;8.53;;;10.30;40.00;;;;;;5128360;27;20442;-76
2024/01/17 11:18:10;;;;;;;13.27;7.97;;;10.40;40.60;;;;;;5137476;27;20449;-77
2024/01/17 11:20:40;;;;;;;14.37;8.03;;;10.70;40.10;;;;;;5138708;27;20496;-77
2024/01/17 11:23:08;;;;;;;13.30;8.93;;;10.70;39.20;;;;;;5129529;27;20455;-77
2024/01/17 11:25:42;;;;;;;18.63;8.10;;;10.60;39.10;;;;;;5134732;27;20447;-77
2024/01/17 11:28:19;;;;;;;12.97;8.13;;;10.60;39.20;;;;;;5129158;27;20470;-78
2024/01/17 11:30:57;;;;;;;11.73;7.67;;;10.70;39.20;;;;;;5123620;27;20439;-77
2024/01/17 11:33:26;;;;;;;10.67;7.37;;;10.60;38.80;;;;;;5129734;27;21010;-75
2024/01/17 11:35:54;;;;;;;11.07;7.57;;;10.60;38.70;;;;;;5126205;27;20443;-78
2024/01/17 11:38:30;;;;;;;16.90;8.47;;;10.60;39.00;;;;;;5132417;27;20439;-77
2024/01/17 11:41:00;;;;;;;12.83;7.97;;;10.60;39.10;;;;;;5132199;27;20439;-78
2024/01/17 11:43:31;;;;;;;12.50;7.83;;;10.80;38.40;;;;;;5131892;27;20530;-77
2024/01/17 11:46:00;;;;;;;12.40;7.50;;;10.70;38.00;;;;;;5122776;27;20527;-77
2024/01/17 11:48:29;;;;;;;12.30;7.37;;;10.70;38.40;;;;;;5129819;27;20466;-77
2024/01/17 11:51:00;;;;;;;11.47;8.07;;;10.70;38.30;;;;;;5125861;27;20438;-77
2024/01/17 11:53:29;;;;;;;18.50;7.43;;;10.60;38.00;;;;;;5134130;27;20435;-74
2024/01/17 11:55:58;;;;;;;10.60;7.50;;;10.50;38.90;;;;;;5133698;27;20443;-74
2024/01/17 11:58:40;;;;;;;16.00;8.23;;;10.50;38.60;;;;;;5134152;27;20470;-75
2024/01/17 12:01:09;;;;;;;12.30;7.73;;;10.40;38.50;;;;;;5132570;27;20558;-76
2024/01/17 12:03:39;;;;;;;12.43;7.90;;;10.40;38.80;;;;;;5133764;28;20441;-78
2024/01/17 12:06:09;;;;;;;12.30;7.53;;;10.40;38.40;;;;;;5124425;28;20443;-78
2024/01/17 12:08:37;;;;;;;13.03;8.20;;;10.40;38.60;;;;;;5133696;28;20500;-77
2024/01/17 12:11:06;;;;;;;14.70;8.50;;;10.40;38.90;;;;;;5146267;28;20503;-84
2024/01/17 12:13:36;;;;;;;12.77;8.40;;;10.50;38.60;;;;;;5158099;28;20442;-79
2024/01/17 12:16:08;;;;;;;13.97;8.80;;;10.40;38.70;;;;;;5151022;27;20442;-79
2024/01/17 12:18:38;;;;;;;15.13;8.13;;;10.40;38.40;;;;;;5156265;27;20450;-79
2024/01/17 12:21:08;;;;;;;11.03;7.57;;;10.40;38.80;;;;;;5148746;27;20469;-76
2024/01/17 12:23:37;;;;;;;12.27;7.53;;;10.30;38.50;;;;;;5138579;27;20529;-81
2024/01/17 12:26:06;;;;;;;12.80;8.30;;;10.30;39.00;;;;;;5152922;27;20966;-78
2024/01/17 12:28:38;;;;;;;11.70;7.03;;;10.30;39.00;;;;;;5145507;27;20466;-80
2024/01/17 12:31:11;;;;;;;14.00;8.07;;;10.30;38.70;;;;;;5142234;27;20461;-80
2024/01/17 12:33:42;;;;;;;13.43;7.27;;;10.20;38.70;;;;;;5157806;27;20465;-81
2024/01/17 12:36:11;;;;;;;11.20;7.20;;;10.20;39.00;;;;;;5154566;27;20441;-79
2024/01/17 12:38:52;;;;;;;12.20;8.43;;;10.20;38.90;;;;;;5150416;27;20463;-80
2024/01/17 12:41:22;;;;;;;11.50;6.70;;;10.10;39.00;;;;;;5152930;27;20469;-80
2024/01/17 12:43:53;;;;;;;12.20;7.50;;;10.20;39.00;;;;;;5149008;27;20531;-81
2024/01/17 12:50:01;;;;;;;12.63;7.13;;;10.00;38.40;;;;;;5111947;27;20435;-78
2024/01/17 12:52:37;;;;;;;13.60;8.17;;;10.10;39.00;;;;;;5143578;27;20467;-79
2024/01/17 12:55:14;;;;;;;10.97;8.00;;;10.20;39.00;;;;;;5136061;27;20430;-78
2024/01/17 12:57:48;;;;;;;12.87;8.00;;;10.30;38.60;;;;;;5139847;27;20503;-78